sensor_id;sensor_type;location;lat;lon;timestamp;temperature;humidity
27619;DHT22;15039;50.830;4.730;2024-01-06T00:01:37;7.50;99.90
27619;DHT22;15039;50.830;4.730;2024-01-06T00:04:03;7.50;99.90
27619;DHT22;15039;50.830;4.730;2024-01-06T00:06:29;7.40;99.90
27619;DHT22;15039;50.830;4.730;2024-01-06T00:08:55;7.50;99.90
27619;DHT22;15039;50.830;4.730;2024-01-06T00:11:21;7.50;99.90
27619;DHT22;15039;50.830;4.730;2024-01-06T00:13:47;7.50;99.90
27619;DHT22;15039;50.830;4.730;2024-01-06T00:16:12;7.50;99.90
27619;DHT22;15039;50.830;4.730;2024-01-06T00:18:39;7.50;99.90
27619;DHT22;15039;50.830;4.730;2024-01-06T00:21:05;7.50;99.90
27619;DHT22;15039;50.830;4.730;2024-01-06T00:23:30;7.60;99.90
27619;DHT22;15039;50.830;4.730;2024-01-06T00:25:56;7.50;99.90
27619;DHT22;15039;50.830;4.730;2024-01-06T00:28:22;7.50;99.90
27619;DHT22;15039;50.830;4.730;2024-01-06T00:30:48;7.50;99.90
27619;DHT22;15039;50.830;4.730;2024-01-06T00:33:13;7.50;99.90
27619;DHT22;15039;50.830;4.730;2024-01-06T00:35:39;7.60;99.90
27619;DHT22;15039;50.830;4.730;2024-01-06T00:38:05;7.50;99.90
27619;DHT22;15039;50.830;4.730;2024-01-06T00:40:30;7.50;99.90
27619;DHT22;15039;50.830;4.730;2024-01-06T00:42:58;7.50;99.90
27619;DHT22;15039;50.830;4.730;2024-01-06T00:45:23;7.50;99.90
27619;DHT22;15039;50.830;4.730;2024-01-06T00:47:49;7.50;99.90
27619;DHT22;15039;50.830;4.730;2024-01-06T00:50:15;7.60;99.90
27619;DHT22;15039;50.830;4.730;2024-01-06T00:52:42;7.50;99.90
27619;DHT22;15039;50.830;4.730;2024-01-06T00:55:08;7.50;99.90
27619;DHT22;15039;50.830;4.730;2024-01-06T00:57:34;7.50;99.90
27619;DHT22;15039;50.830;4.730;2024-01-06T00:59:59;7.50;99.90
27619;DHT22;15039;50.830;4.730;2024-01-06T01:02:25;7.50;99.90
27619;DHT22;15039;50.830;4.730;2024-01-06T01:04:51;7.50;99.90
27619;DHT22;15039;50.830;4.730;2024-01-06T01:07:18;7.60;99.90
27619;DHT22;15039;50.830;4.730;2024-01-06T01:09:43;7.60;99.90
27619;DHT22;15039;50.830;4.730;2024-01-06T01:12:09;7.60;99.90
27619;DHT22;15039;50.830;4.730;2024-01-06T01:14:34;7.60;99.90
27619;DHT22;15039;50.830;4.730;2024-01-06T01:17:00;7.60;99.90
27619;DHT22;15039;50.830;4.730;2024-01-06T01:19:26;7.60;99.90
27619;DHT22;15039;50.830;4.730;2024-01-06T01:21:51;7.60;99.90
27619;DHT22;15039;50.830;4.730;2024-01-06T01:24:21;7.60;99.90
27619;DHT22;15039;50.830;4.730;2024-01-06T01:26:47;7.60;99.90
27619;DHT22;15039;50.830;4.730;2024-01-06T01:29:12;7.40;99.90
27619;DHT22;15039;50.830;4.730;2024-01-06T01:31:38;7.40;99.90
27619;DHT22;15039;50.830;4.730;2024-01-06T01:34:04;7.50;99.90
27619;DHT22;15039;50.830;4.730;2024-01-06T01:36:31;7.60;99.90
27619;DHT22;15039;50.830;4.730;2024-01-06T01:38:56;7.50;99.90
27619;DHT22;15039;50.830;4.730;2024-01-06T01:41:22;7.50;99.90
27619;DHT22;15039;50.830;4.730;2024-01-06T01:43:48;7.50;99.90
27619;DHT22;15039;50.830;4.730;2024-01-06T01:46:13;7.50;99.90
27619;DHT22;15039;50.830;4.730;2024-01-06T01:48:39;7.50;99.90
27619;DHT22;15039;50.830;4.730;2024-01-06T01:51:05;7.50;99.90
27619;DHT22;15039;50.830;4.730;2024-01-06T01:53:32;7.50;99.90
27619;DHT22;15039;50.830;4.730;2024-01-06T01:55:58;7.50;99.90
27619;DHT22;15039;50.830;4.730;2024-01-06T01:58:24;7.50;99.90
27619;DHT22;15039;50.830;4.730;2024-01-06T02:00:50;7.50;99.90
27619;DHT22;15039;50.830;4.730;2024-01-06T02:03:16;7.50;99.90
27619;DHT22;15039;50.830;4.730;2024-01-06T02:05:42;7.50;99.90
27619;DHT22;15039;50.830;4.730;2024-01-06T02:08:08;7.50;99.90
27619;DHT22;15039;50.830;4.730;2024-01-06T02:10:34;7.50;99.90
27619;DHT22;15039;50.830;4.730;2024-01-06T02:13:08;7.60;99.90
27619;DHT22;15039;50.830;4.730;2024-01-06T02:15:34;7.60;99.90
27619;DHT22;15039;50.830;4.730;2024-01-06T02:18:00;7.50;99.90
27619;DHT22;15039;50.830;4.730;2024-01-06T02:20:28;7.40;99.90
27619;DHT22;15039;50.830;4.730;2024-01-06T02:22:55;7.40;99.90
27619;DHT22;15039;50.830;4.730;2024-01-06T02:25:22;7.50;99.90
27619;DHT22;15039;50.830;4.730;2024-01-06T02:27:48;7.50;99.90
27619;DHT22;15039;50.830;4.730;2024-01-06T02:30:13;7.50;99.90
27619;DHT22;15039;50.830;4.730;2024-01-06T02:32:39;7.30;99.90
27619;DHT22;15039;50.830;4.730;2024-01-06T02:35:05;7.30;99.90
27619;DHT22;15039;50.830;4.730;2024-01-06T02:37:31;7.30;99.90
27619;DHT22;15039;50.830;4.730;2024-01-06T02:39:56;7.40;99.90
27619;DHT22;15039;50.830;4.730;2024-01-06T02:42:22;7.40;99.90
27619;DHT22;15039;50.830;4.730;2024-01-06T02:44:49;7.40;99.90
27619;DHT22;15039;50.830;4.730;2024-01-06T02:47:15;7.40;99.90
27619;DHT22;15039;50.830;4.730;2024-01-06T02:49:40;7.40;99.90
27619;DHT22;15039;50.830;4.730;2024-01-06T02:52:06;7.50;99.90
27619;DHT22;15039;50.830;4.730;2024-01-06T02:54:32;7.50;99.90
27619;DHT22;15039;50.830;4.730;2024-01-06T02:56:57;7.60;99.90
27619;DHT22;15039;50.830;4.730;2024-01-06T02:59:23;7.60;99.90
27619;DHT22;15039;50.830;4.730;2024-01-06T03:01:49;7.60;99.90
27619;DHT22;15039;50.830;4.730;2024-01-06T03:04:14;7.60;99.90
27619;DHT22;15039;50.830;4.730;2024-01-06T03:06:40;7.50;99.90
27619;DHT22;15039;50.830;4.730;2024-01-06T03:09:06;7.60;99.90
27619;DHT22;15039;50.830;4.730;2024-01-06T03:11:31;7.60;99.90
27619;DHT22;15039;50.830;4.730;2024-01-06T03:13:57;7.70;99.90
27619;DHT22;15039;50.830;4.730;2024-01-06T03:16:23;7.60;99.90
27619;DHT22;15039;50.830;4.730;2024-01-06T03:18:48;7.70;99.90
27619;DHT22;15039;50.830;4.730;2024-01-06T03:21:20;7.70;99.90
27619;DHT22;15039;50.830;4.730;2024-01-06T03:23:48;7.60;99.90
27619;DHT22;15039;50.830;4.730;2024-01-06T03:26:13;7.70;99.90
27619;DHT22;15039;50.830;4.730;2024-01-06T03:28:39;7.70;99.90
27619;DHT22;15039;50.830;4.730;2024-01-06T03:31:05;7.60;99.90
27619;DHT22;15039;50.830;4.730;2024-01-06T03:33:30;7.60;99.90
27619;DHT22;15039;50.830;4.730;2024-01-06T03:35:56;7.50;99.90
27619;DHT22;15039;50.830;4.730;2024-01-06T03:38:22;7.40;99.90
27619;DHT22;15039;50.830;4.730;2024-01-06T03:40:47;7.30;99.90
27619;DHT22;15039;50.830;4.730;2024-01-06T03:43:13;7.30;99.90
27619;DHT22;15039;50.830;4.730;2024-01-06T03:45:39;7.20;99.90
27619;DHT22;15039;50.830;4.730;2024-01-06T03:48:04;7.30;99.90
27619;DHT22;15039;50.830;4.730;2024-01-06T03:50:30;7.30;99.90
27619;DHT22;15039;50.830;4.730;2024-01-06T03:52:56;7.30;99.90
27619;DHT22;15039;50.830;4.730;2024-01-06T03:55:22;7.40;99.90
27619;DHT22;15039;50.830;4.730;2024-01-06T03:57:48;7.30;99.90
27619;DHT22;15039;50.830;4.730;2024-01-06T04:00:14;7.40;99.90
27619;DHT22;15039;50.830;4.730;2024-01-06T04:02:39;7.30;99.90
27619;DHT22;15039;50.830;4.730;2024-01-06T04:05:05;7.40;99.90
27619;DHT22;15039;50.830;4.730;2024-01-06T04:07:31;7.40;99.90
27619;DHT22;15039;50.830;4.730;2024-01-06T04:09:56;7.40;99.90
27619;DHT22;15039;50.830;4.730;2024-01-06T04:12:24;7.40;99.90
27619;DHT22;15039;50.830;4.730;2024-01-06T04:14:49;7.30;99.90
27619;DHT22;15039;50.830;4.730;2024-01-06T04:17:15;7.30;99.90
27619;DHT22;15039;50.830;4.730;2024-01-06T04:19:41;7.20;99.90
27619;DHT22;15039;50.830;4.730;2024-01-06T04:22:06;7.10;99.90
27619;DHT22;15039;50.830;4.730;2024-01-06T04:24:32;7.10;99.90
27619;DHT22;15039;50.830;4.730;2024-01-06T04:27:03;7.00;99.90
27619;DHT22;15039;50.830;4.730;2024-01-06T04:29:30;6.90;99.90
27619;DHT22;15039;50.830;4.730;2024-01-06T04:31:56;7.00;99.90
27619;DHT22;15039;50.830;4.730;2024-01-06T04:34:22;7.00;99.90
27619;DHT22;15039;50.830;4.730;2024-01-06T04:36:47;7.00;99.90
27619;DHT22;15039;50.830;4.730;2024-01-06T04:39:15;7.00;99.90
27619;DHT22;15039;50.830;4.730;2024-01-06T04:41:40;7.00;99.90
27619;DHT22;15039;50.830;4.730;2024-01-06T04:44:06;6.90;99.90
27619;DHT22;15039;50.830;4.730;2024-01-06T04:46:32;6.80;99.90
27619;DHT22;15039;50.830;4.730;2024-01-06T04:48:57;6.70;99.90
27619;DHT22;15039;50.830;4.730;2024-01-06T04:51:23;6.70;99.90
27619;DHT22;15039;50.830;4.730;2024-01-06T04:53:49;6.70;99.90
27619;DHT22;15039;50.830;4.730;2024-01-06T04:56:14;6.70;99.90
27619;DHT22;15039;50.830;4.730;2024-01-06T04:58:40;6.70;99.90
27619;DHT22;15039;50.830;4.730;2024-01-06T05:01:06;6.70;99.90
27619;DHT22;15039;50.830;4.730;2024-01-06T05:03:31;6.70;99.90
27619;DHT22;15039;50.830;4.730;2024-01-06T05:05:57;6.80;99.90
27619;DHT22;15039;50.830;4.730;2024-01-06T05:08:23;6.80;99.90
27619;DHT22;15039;50.830;4.730;2024-01-06T05:10:53;6.80;99.90
27619;DHT22;15039;50.830;4.730;2024-01-06T05:13:19;6.80;99.90
27619;DHT22;15039;50.830;4.730;2024-01-06T05:15:45;6.80;99.90
27619;DHT22;15039;50.830;4.730;2024-01-06T05:18:10;6.90;99.90
27619;DHT22;15039;50.830;4.730;2024-01-06T05:20:36;6.80;99.90
27619;DHT22;15039;50.830;4.730;2024-01-06T05:23:02;6.80;99.90
27619;DHT22;15039;50.830;4.730;2024-01-06T05:25:28;6.90;99.90
27619;DHT22;15039;50.830;4.730;2024-01-06T05:27:53;6.80;99.90
27619;DHT22;15039;50.830;4.730;2024-01-06T05:30:19;6.90;99.90
27619;DHT22;15039;50.830;4.730;2024-01-06T05:32:45;6.90;99.90
27619;DHT22;15039;50.830;4.730;2024-01-06T05:35:10;6.90;99.90
27619;DHT22;15039;50.830;4.730;2024-01-06T05:37:36;6.80;99.90
27619;DHT22;15039;50.830;4.730;2024-01-06T05:40:02;6.70;99.90
27619;DHT22;15039;50.830;4.730;2024-01-06T05:42:31;6.60;99.90
27619;DHT22;15039;50.830;4.730;2024-01-06T05:44:56;6.60;99.90
27619;DHT22;15039;50.830;4.730;2024-01-06T05:47:22;6.60;99.90
27619;DHT22;15039;50.830;4.730;2024-01-06T05:49:48;6.50;99.90
27619;DHT22;15039;50.830;4.730;2024-01-06T05:52:15;6.50;99.90
27619;DHT22;15039;50.830;4.730;2024-01-06T05:54:41;6.50;99.90
27619;DHT22;15039;50.830;4.730;2024-01-06T05:57:10;6.50;99.90
27619;DHT22;15039;50.830;4.730;2024-01-06T05:59:38;6.60;99.90
27619;DHT22;15039;50.830;4.730;2024-01-06T06:02:04;6.80;99.90
27619;DHT22;15039;50.830;4.730;2024-01-06T06:04:30;6.70;99.90
27619;DHT22;15039;50.830;4.730;2024-01-06T06:06:55;6.60;99.90
27619;DHT22;15039;50.830;4.730;2024-01-06T06:09:21;6.60;99.90
27619;DHT22;15039;50.830;4.730;2024-01-06T06:11:47;6.60;99.90
27619;DHT22;15039;50.830;4.730;2024-01-06T06:14:13;6.60;99.90
27619;DHT22;15039;50.830;4.730;2024-01-06T06:16:40;6.60;99.90
27619;DHT22;15039;50.830;4.730;2024-01-06T06:19:06;6.60;99.90
27619;DHT22;15039;50.830;4.730;2024-01-06T06:21:33;6.50;99.90
27619;DHT22;15039;50.830;4.730;2024-01-06T06:23:59;6.60;99.90
27619;DHT22;15039;50.830;4.730;2024-01-06T06:26:25;6.60;99.90
27619;DHT22;15039;50.830;4.730;2024-01-06T06:28:51;6.50;99.90
27619;DHT22;15039;50.830;4.730;2024-01-06T06:31:17;6.40;99.90
27619;DHT22;15039;50.830;4.730;2024-01-06T06:33:43;6.40;99.90
27619;DHT22;15039;50.830;4.730;2024-01-06T06:36:08;6.30;99.90
27619;DHT22;15039;50.830;4.730;2024-01-06T06:38:34;6.10;99.90
27619;DHT22;15039;50.830;4.730;2024-01-06T06:41:00;6.20;99.90
27619;DHT22;15039;50.830;4.730;2024-01-06T06:43:25;6.20;99.90
27619;DHT22;15039;50.830;4.730;2024-01-06T06:45:51;6.10;99.90
27619;DHT22;15039;50.830;4.730;2024-01-06T06:48:16;5.90;99.90
27619;DHT22;15039;50.830;4.730;2024-01-06T06:50:42;5.80;99.90
27619;DHT22;15039;50.830;4.730;2024-01-06T06:53:09;5.70;99.90
27619;DHT22;15039;50.830;4.730;2024-01-06T06:55:34;5.70;99.90
27619;DHT22;15039;50.830;4.730;2024-01-06T06:58:03;5.80;99.90
27619;DHT22;15039;50.830;4.730;2024-01-06T07:00:30;5.90;99.90
27619;DHT22;15039;50.830;4.730;2024-01-06T07:02:56;5.90;99.90
27619;DHT22;15039;50.830;4.730;2024-01-06T07:05:23;5.90;99.90
27619;DHT22;15039;50.830;4.730;2024-01-06T07:07:48;6.00;99.90
27619;DHT22;15039;50.830;4.730;2024-01-06T07:10:14;5.90;99.90
27619;DHT22;15039;50.830;4.730;2024-01-06T07:12:40;5.80;99.90
27619;DHT22;15039;50.830;4.730;2024-01-06T07:15:06;5.80;99.90
27619;DHT22;15039;50.830;4.730;2024-01-06T07:17:32;5.80;99.90
27619;DHT22;15039;50.830;4.730;2024-01-06T07:19:57;5.90;99.90
27619;DHT22;15039;50.830;4.730;2024-01-06T07:22:23;5.80;99.90
27619;DHT22;15039;50.830;4.730;2024-01-06T07:24:49;5.70;99.90
27619;DHT22;15039;50.830;4.730;2024-01-06T07:27:14;5.70;99.90
27619;DHT22;15039;50.830;4.730;2024-01-06T07:29:40;5.70;99.90
27619;DHT22;15039;50.830;4.730;2024-01-06T07:32:06;5.70;99.90
27619;DHT22;15039;50.830;4.730;2024-01-06T07:34:32;5.80;99.90
27619;DHT22;15039;50.830;4.730;2024-01-06T07:36:58;5.80;99.90
27619;DHT22;15039;50.830;4.730;2024-01-06T07:39:23;5.70;99.90
27619;DHT22;15039;50.830;4.730;2024-01-06T07:41:52;5.70;99.90
27619;DHT22;15039;50.830;4.730;2024-01-06T07:44:17;5.80;99.90
27619;DHT22;15039;50.830;4.730;2024-01-06T07:46:50;5.80;99.90
27619;DHT22;15039;50.830;4.730;2024-01-06T07:49:16;5.90;99.90
27619;DHT22;15039;50.830;4.730;2024-01-06T07:51:42;5.90;99.90
27619;DHT22;15039;50.830;4.730;2024-01-06T07:54:07;5.90;99.90
27619;DHT22;15039;50.830;4.730;2024-01-06T07:56:35;5.90;99.90
27619;DHT22;15039;50.830;4.730;2024-01-06T07:59:01;5.80;99.90
27619;DHT22;15039;50.830;4.730;2024-01-06T08:01:27;5.90;99.90
27619;DHT22;15039;50.830;4.730;2024-01-06T08:03:52;5.80;99.90
27619;DHT22;15039;50.830;4.730;2024-01-06T08:06:18;5.90;99.90
27619;DHT22;15039;50.830;4.730;2024-01-06T08:08:44;5.80;99.90
27619;DHT22;15039;50.830;4.730;2024-01-06T08:11:11;5.80;99.90
27619;DHT22;15039;50.830;4.730;2024-01-06T08:13:37;5.90;99.90
27619;DHT22;15039;50.830;4.730;2024-01-06T08:16:04;5.90;99.90
27619;DHT22;15039;50.830;4.730;2024-01-06T08:18:30;5.80;99.90
27619;DHT22;15039;50.830;4.730;2024-01-06T08:20:55;5.80;99.90
27619;DHT22;15039;50.830;4.730;2024-01-06T08:23:21;5.70;99.90
27619;DHT22;15039;50.830;4.730;2024-01-06T08:25:47;5.80;99.90
27619;DHT22;15039;50.830;4.730;2024-01-06T08:28:13;5.80;99.90
27619;DHT22;15039;50.830;4.730;2024-01-06T08:30:40;5.90;99.90
27619;DHT22;15039;50.830;4.730;2024-01-06T08:33:06;5.90;99.90
27619;DHT22;15039;50.830;4.730;2024-01-06T08:35:32;5.90;99.90
27619;DHT22;15039;50.830;4.730;2024-01-06T08:37:57;5.90;99.90
27619;DHT22;15039;50.830;4.730;2024-01-06T08:40:23;6.10;99.90
27619;DHT22;15039;50.830;4.730;2024-01-06T08:42:49;6.00;99.90
27619;DHT22;15039;50.830;4.730;2024-01-06T08:45:15;5.90;99.90
27619;DHT22;15039;50.830;4.730;2024-01-06T08:47:41;6.00;99.90
27619;DHT22;15039;50.830;4.730;2024-01-06T08:50:07;6.00;99.90
27619;DHT22;15039;50.830;4.730;2024-01-06T08:52:32;6.10;99.90
27619;DHT22;15039;50.830;4.730;2024-01-06T08:54:58;6.00;99.90
27619;DHT22;15039;50.830;4.730;2024-01-06T08:57:24;5.80;99.90
27619;DHT22;15039;50.830;4.730;2024-01-06T08:59:49;5.70;99.90
27619;DHT22;15039;50.830;4.730;2024-01-06T09:02:15;5.80;99.90
27619;DHT22;15039;50.830;4.730;2024-01-06T09:04:40;5.80;99.90
27619;DHT22;15039;50.830;4.730;2024-01-06T09:07:06;5.80;99.90
27619;DHT22;15039;50.830;4.730;2024-01-06T09:09:32;5.80;99.90
27619;DHT22;15039;50.830;4.730;2024-01-06T09:11:57;5.80;99.90
27619;DHT22;15039;50.830;4.730;2024-01-06T09:14:24;5.80;99.90
27619;DHT22;15039;50.830;4.730;2024-01-06T09:16:50;5.80;99.90
27619;DHT22;15039;50.830;4.730;2024-01-06T09:19:15;5.80;99.90
27619;DHT22;15039;50.830;4.730;2024-01-06T09:21:41;5.70;99.90
27619;DHT22;15039;50.830;4.730;2024-01-06T09:24:07;5.70;99.90
27619;DHT22;15039;50.830;4.730;2024-01-06T09:26:33;5.60;99.90
27619;DHT22;15039;50.830;4.730;2024-01-06T09:29:00;5.80;99.90
27619;DHT22;15039;50.830;4.730;2024-01-06T09:31:26;5.90;99.90
27619;DHT22;15039;50.830;4.730;2024-01-06T09:33:51;5.80;99.90
27619;DHT22;15039;50.830;4.730;2024-01-06T09:36:17;5.70;99.90
27619;DHT22;15039;50.830;4.730;2024-01-06T09:38:43;5.50;99.90
27619;DHT22;15039;50.830;4.730;2024-01-06T09:41:09;5.60;99.90
27619;DHT22;15039;50.830;4.730;2024-01-06T09:43:35;5.60;99.90
27619;DHT22;15039;50.830;4.730;2024-01-06T09:46:15;5.70;99.90
27619;DHT22;15039;50.830;4.730;2024-01-06T09:48:43;5.70;99.90
27619;DHT22;15039;50.830;4.730;2024-01-06T09:51:11;5.60;99.90
27619;DHT22;15039;50.830;4.730;2024-01-06T09:53:43;5.70;99.90
27619;DHT22;15039;50.830;4.730;2024-01-06T09:56:12;5.70;99.90
27619;DHT22;15039;50.830;4.730;2024-01-06T09:58:39;5.80;99.90
27619;DHT22;15039;50.830;4.730;2024-01-06T10:01:06;5.70;99.90
27619;DHT22;15039;50.830;4.730;2024-01-06T10:03:32;5.70;99.90
27619;DHT22;15039;50.830;4.730;2024-01-06T10:05:59;5.80;99.90
27619;DHT22;15039;50.830;4.730;2024-01-06T10:08:29;5.80;99.90
27619;DHT22;15039;50.830;4.730;2024-01-06T10:10:55;5.70;99.90
27619;DHT22;15039;50.830;4.730;2024-01-06T10:13:20;5.60;99.90
27619;DHT22;15039;50.830;4.730;2024-01-06T10:15:46;5.40;99.90
27619;DHT22;15039;50.830;4.730;2024-01-06T10:18:13;5.40;99.90
27619;DHT22;15039;50.830;4.730;2024-01-06T10:20:39;5.40;99.90
27619;DHT22;15039;50.830;4.730;2024-01-06T10:23:05;5.30;99.90
27619;DHT22;15039;50.830;4.730;2024-01-06T10:25:32;5.40;99.90
27619;DHT22;15039;50.830;4.730;2024-01-06T10:28:00;5.40;99.90
27619;DHT22;15039;50.830;4.730;2024-01-06T10:30:27;5.30;99.90
27619;DHT22;15039;50.830;4.730;2024-01-06T10:32:53;5.20;99.90
27619;DHT22;15039;50.830;4.730;2024-01-06T10:35:19;5.20;99.90
27619;DHT22;15039;50.830;4.730;2024-01-06T10:37:48;5.30;99.90
27619;DHT22;15039;50.830;4.730;2024-01-06T10:40:16;5.30;99.90
27619;DHT22;15039;50.830;4.730;2024-01-06T10:42:42;5.30;99.90
27619;DHT22;15039;50.830;4.730;2024-01-06T10:45:10;5.20;99.90
27619;DHT22;15039;50.830;4.730;2024-01-06T10:47:39;5.30;99.90
27619;DHT22;15039;50.830;4.730;2024-01-06T10:50:07;5.30;99.90
27619;DHT22;15039;50.830;4.730;2024-01-06T10:52:37;5.20;99.90
27619;DHT22;15039;50.830;4.730;2024-01-06T10:55:04;5.10;99.90
27619;DHT22;15039;50.830;4.730;2024-01-06T10:57:39;5.10;99.90
27619;DHT22;15039;50.830;4.730;2024-01-06T11:00:08;5.10;99.90
27619;DHT22;15039;50.830;4.730;2024-01-06T11:02:37;5.00;99.90
27619;DHT22;15039;50.830;4.730;2024-01-06T11:05:04;5.00;99.90
27619;DHT22;15039;50.830;4.730;2024-01-06T11:07:34;5.00;99.90
27619;DHT22;15039;50.830;4.730;2024-01-06T11:10:17;5.00;99.90
27619;DHT22;15039;50.830;4.730;2024-01-06T11:12:45;4.90;99.90
27619;DHT22;15039;50.830;4.730;2024-01-06T11:15:41;5.10;99.90
27619;DHT22;15039;50.830;4.730;2024-01-06T11:18:07;5.10;99.90
27619;DHT22;15039;50.830;4.730;2024-01-06T11:20:34;5.30;99.90
27619;DHT22;15039;50.830;4.730;2024-01-06T11:23:18;5.20;99.90
27619;DHT22;15039;50.830;4.730;2024-01-06T11:25:47;5.10;99.90
27619;DHT22;15039;50.830;4.730;2024-01-06T11:28:16;5.00;99.90
27619;DHT22;15039;50.830;4.730;2024-01-06T11:30:42;5.10;99.90
27619;DHT22;15039;50.830;4.730;2024-01-06T11:33:08;5.00;99.90
27619;DHT22;15039;50.830;4.730;2024-01-06T11:35:37;5.10;99.90
27619;DHT22;15039;50.830;4.730;2024-01-06T11:38:07;5.00;99.90
27619;DHT22;15039;50.830;4.730;2024-01-06T11:40:36;5.10;99.90
27619;DHT22;15039;50.830;4.730;2024-01-06T11:43:11;5.20;99.90
27619;DHT22;15039;50.830;4.730;2024-01-06T11:45:40;5.00;99.90
27619;DHT22;15039;50.830;4.730;2024-01-06T11:48:09;4.90;99.90
27619;DHT22;15039;50.830;4.730;2024-01-06T11:50:37;5.00;99.90
27619;DHT22;15039;50.830;4.730;2024-01-06T11:53:04;5.00;99.90
27619;DHT22;15039;50.830;4.730;2024-01-06T11:55:30;4.90;99.90
27619;DHT22;15039;50.830;4.730;2024-01-06T11:58:01;5.00;99.90
27619;DHT22;15039;50.830;4.730;2024-01-06T12:00:34;5.00;99.90
27619;DHT22;15039;50.830;4.730;2024-01-06T12:03:04;5.10;99.90
27619;DHT22;15039;50.830;4.730;2024-01-06T12:05:30;5.10;99.90
27619;DHT22;15039;50.830;4.730;2024-01-06T12:08:01;5.10;99.90
27619;DHT22;15039;50.830;4.730;2024-01-06T12:10:28;5.10;99.90
27619;DHT22;15039;50.830;4.730;2024-01-06T12:13:05;5.10;99.90
27619;DHT22;15039;50.830;4.730;2024-01-06T12:15:33;5.10;99.90
27619;DHT22;15039;50.830;4.730;2024-01-06T12:18:02;5.10;99.90
27619;DHT22;15039;50.830;4.730;2024-01-06T12:20:28;5.10;99.90
27619;DHT22;15039;50.830;4.730;2024-01-06T12:22:55;5.10;99.90
27619;DHT22;15039;50.830;4.730;2024-01-06T12:25:25;5.10;99.90
27619;DHT22;15039;50.830;4.730;2024-01-06T12:27:52;5.20;99.90
27619;DHT22;15039;50.830;4.730;2024-01-06T12:30:21;5.20;99.90
27619;DHT22;15039;50.830;4.730;2024-01-06T12:32:48;5.20;99.90
27619;DHT22;15039;50.830;4.730;2024-01-06T12:35:14;5.20;99.90
27619;DHT22;15039;50.830;4.730;2024-01-06T12:40:09;5.20;99.90
27619;DHT22;15039;50.830;4.730;2024-01-06T12:42:35;5.10;99.90
27619;DHT22;15039;50.830;4.730;2024-01-06T12:45:02;5.20;99.90
27619;DHT22;15039;50.830;4.730;2024-01-06T12:47:28;5.20;99.90
27619;DHT22;15039;50.830;4.730;2024-01-06T12:49:53;5.20;99.90
27619;DHT22;15039;50.830;4.730;2024-01-06T12:52:19;5.10;99.90
27619;DHT22;15039;50.830;4.730;2024-01-06T12:54:45;5.10;99.90
27619;DHT22;15039;50.830;4.730;2024-01-06T12:57:11;5.10;99.90
27619;DHT22;15039;50.830;4.730;2024-01-06T12:59:37;5.30;99.90
27619;DHT22;15039;50.830;4.730;2024-01-06T13:02:08;5.40;99.90
27619;DHT22;15039;50.830;4.730;2024-01-06T13:04:35;5.30;99.90
27619;DHT22;15039;50.830;4.730;2024-01-06T13:07:01;5.30;99.90
27619;DHT22;15039;50.830;4.730;2024-01-06T13:09:27;5.40;99.90
27619;DHT22;15039;50.830;4.730;2024-01-06T13:11:53;5.40;99.90
27619;DHT22;15039;50.830;4.730;2024-01-06T13:14:21;5.30;99.90
27619;DHT22;15039;50.830;4.730;2024-01-06T13:16:47;5.40;99.90
27619;DHT22;15039;50.830;4.730;2024-01-06T13:19:12;5.20;99.90
27619;DHT22;15039;50.830;4.730;2024-01-06T13:21:38;5.10;99.90
27619;DHT22;15039;50.830;4.730;2024-01-06T13:24:06;5.00;99.90
27619;DHT22;15039;50.830;4.730;2024-01-06T13:26:32;5.00;99.90
27619;DHT22;15039;50.830;4.730;2024-01-06T13:28:58;4.90;99.90
27619;DHT22;15039;50.830;4.730;2024-01-06T13:31:25;5.00;99.90
27619;DHT22;15039;50.830;4.730;2024-01-06T13:33:52;5.00;99.90
27619;DHT22;15039;50.830;4.730;2024-01-06T13:36:19;5.00;99.90
27619;DHT22;15039;50.830;4.730;2024-01-06T13:38:46;5.10;99.90
27619;DHT22;15039;50.830;4.730;2024-01-06T13:41:12;5.10;99.90
27619;DHT22;15039;50.830;4.730;2024-01-06T13:43:37;5.10;99.90
27619;DHT22;15039;50.830;4.730;2024-01-06T13:46:03;5.10;99.90
27619;DHT22;15039;50.830;4.730;2024-01-06T13:48:29;5.00;99.90
27619;DHT22;15039;50.830;4.730;2024-01-06T13:50:55;5.00;99.90
27619;DHT22;15039;50.830;4.730;2024-01-06T13:53:21;5.00;99.90
27619;DHT22;15039;50.830;4.730;2024-01-06T13:55:47;4.90;99.90
27619;DHT22;15039;50.830;4.730;2024-01-06T13:58:14;4.90;99.90
27619;DHT22;15039;50.830;4.730;2024-01-06T14:00:42;4.90;99.90
27619;DHT22;15039;50.830;4.730;2024-01-06T14:03:08;4.80;99.90
27619;DHT22;15039;50.830;4.730;2024-01-06T14:05:33;4.90;99.90
27619;DHT22;15039;50.830;4.730;2024-01-06T14:08:02;5.10;99.90
27619;DHT22;15039;50.830;4.730;2024-01-06T14:10:27;5.10;99.90
27619;DHT22;15039;50.830;4.730;2024-01-06T14:12:53;5.20;99.90
27619;DHT22;15039;50.830;4.730;2024-01-06T14:15:20;5.20;99.90
27619;DHT22;15039;50.830;4.730;2024-01-06T14:17:45;5.10;99.90
27619;DHT22;15039;50.830;4.730;2024-01-06T14:20:16;5.00;99.90
27619;DHT22;15039;50.830;4.730;2024-01-06T14:22:46;5.10;99.90
27619;DHT22;15039;50.830;4.730;2024-01-06T14:25:13;5.10;99.90
27619;DHT22;15039;50.830;4.730;2024-01-06T14:27:38;5.10;99.90
27619;DHT22;15039;50.830;4.730;2024-01-06T14:30:07;5.10;99.90
27619;DHT22;15039;50.830;4.730;2024-01-06T14:32:35;5.00;99.90
27619;DHT22;15039;50.830;4.730;2024-01-06T14:35:03;4.90;99.90
27619;DHT22;15039;50.830;4.730;2024-01-06T14:37:29;4.90;99.90
27619;DHT22;15039;50.830;4.730;2024-01-06T14:39:54;4.90;99.90
27619;DHT22;15039;50.830;4.730;2024-01-06T14:42:20;5.00;99.90
27619;DHT22;15039;50.830;4.730;2024-01-06T14:44:46;4.90;99.90
27619;DHT22;15039;50.830;4.730;2024-01-06T14:47:11;4.90;99.90
27619;DHT22;15039;50.830;4.730;2024-01-06T14:49:38;5.00;99.90
27619;DHT22;15039;50.830;4.730;2024-01-06T14:52:04;4.90;99.90
27619;DHT22;15039;50.830;4.730;2024-01-06T14:54:30;4.80;99.90
27619;DHT22;15039;50.830;4.730;2024-01-06T14:56:57;4.90;99.90
27619;DHT22;15039;50.830;4.730;2024-01-06T14:59:24;4.90;99.90
27619;DHT22;15039;50.830;4.730;2024-01-06T15:01:49;4.90;99.90
27619;DHT22;15039;50.830;4.730;2024-01-06T15:04:15;4.80;99.90
27619;DHT22;15039;50.830;4.730;2024-01-06T15:06:43;4.90;99.90
27619;DHT22;15039;50.830;4.730;2024-01-06T15:09:09;4.90;99.90
27619;DHT22;15039;50.830;4.730;2024-01-06T15:11:34;4.90;99.90
27619;DHT22;15039;50.830;4.730;2024-01-06T15:14:01;4.90;99.90
27619;DHT22;15039;50.830;4.730;2024-01-06T15:16:30;5.00;99.90
27619;DHT22;15039;50.830;4.730;2024-01-06T15:18:56;4.90;99.90
27619;DHT22;15039;50.830;4.730;2024-01-06T15:21:25;4.90;99.90
27619;DHT22;15039;50.830;4.730;2024-01-06T15:23:53;4.90;99.90
27619;DHT22;15039;50.830;4.730;2024-01-06T15:26:25;4.90;99.90
27619;DHT22;15039;50.830;4.730;2024-01-06T15:28:51;4.80;99.90
27619;DHT22;15039;50.830;4.730;2024-01-06T15:31:16;4.80;99.90
27619;DHT22;15039;50.830;4.730;2024-01-06T15:33:42;4.80;99.90
27619;DHT22;15039;50.830;4.730;2024-01-06T15:36:11;4.80;99.90
27619;DHT22;15039;50.830;4.730;2024-01-06T15:38:36;4.80;99.90
27619;DHT22;15039;50.830;4.730;2024-01-06T15:41:02;4.80;99.90
27619;DHT22;15039;50.830;4.730;2024-01-06T15:43:29;4.80;99.90